Time;durP1;ratioP1;P1;durP2;ratioP2;P2;SDS_P1;SDS_P2;PMS_P1;PMS_P2;Temp;Humidity;BMP_temperature;BMP_pressure;BME280_temperature;BME280_humidity;BME280_pressure;Samples;Min_cycle;Max_cycle;Signal;HPM_P1;HPM_P2
2021/06/03 00:00:55;;;;;;;7.22;6.40;;;;;;;18.24;54.50;95886.63;5016031;28;20195;-85
2021/06/03 00:03:22;;;;;;;6.75;5.80;;;;;;;18.28;54.56;95895.56;5016953;28;20333;-84
2021/06/03 00:05:50;;;;;;;6.70;6.00;;;;;;;18.23;54.35;95899.88;5016691;28;20706;-84
2021/06/03 00:08:18;;;;;;;6.82;5.70;;;;;;;18.23;54.53;95886.84;5016944;28;20290;-83
2021/06/03 00:10:50;;;;;;;6.38;5.40;;;;;;;18.30;54.40;95901.38;5016781;28;20199;-82
2021/06/03 00:13:17;;;;;;;8.93;5.75;;;;;;;18.40;53.88;95893.06;5017557;28;20733;-82
2021/06/03 00:15:43;;;;;;;7.00;5.53;;;;;;;18.46;54.16;95894.00;5015469;28;20234;-82
2021/06/03 00:18:09;;;;;;;6.15;5.55;;;;;;;18.50;53.69;95903.78;5016063;28;20670;-82
2021/06/03 00:20:35;;;;;;;6.55;5.63;;;;;;;18.34;54.68;95891.31;5015940;28;20202;-84
2021/06/03 00:23:03;;;;;;;7.00;5.57;;;;;;;18.23;54.92;95913.69;5015467;28;20207;-85
2021/06/03 00:25:29;;;;;;;5.65;5.15;;;;;;;18.14;55.32;95901.16;5015533;28;20211;-83
2021/06/03 00:27:57;;;;;;;7.75;5.55;;;;;;;18.04;55.20;95898.25;5016236;28;20756;-85
2021/06/03 00:30:23;;;;;;;5.68;4.93;;;;;;;18.03;55.20;95900.06;5015416;28;20210;-85
2021/06/03 00:32:50;;;;;;;5.95;5.40;;;;;;;18.06;54.73;95907.47;5015078;28;20627;-83
2021/06/03 00:35:17;;;;;;;6.28;5.38;;;;;;;18.13;54.69;95923.00;5015537;28;20223;-85
2021/06/03 00:37:43;;;;;;;6.70;5.28;;;;;;;18.21;54.70;95923.53;5016189;28;20199;-83
2021/06/03 00:40:12;;;;;;;6.55;5.47;;;;;;;18.29;53.92;95925.84;5015752;28;20294;-83
2021/06/03 00:42:39;;;;;;;5.63;5.13;;;;;;;18.13;54.47;95916.00;5015151;28;20202;-83
2021/06/03 00:45:09;;;;;;;5.47;4.97;;;;;;;18.14;53.86;95922.78;5014035;28;20229;-86
2021/06/03 00:47:36;;;;;;;7.55;5.40;;;;;;;18.00;54.14;95920.53;5014667;28;20202;-86
2021/06/03 00:50:02;;;;;;;5.80;4.82;;;;;;;17.89;54.36;95929.84;5015528;28;20207;-86
2021/06/03 00:52:28;;;;;;;6.30;5.55;;;;;;;17.86;55.25;95936.28;5015618;28;20202;-83
2021/06/03 00:54:54;;;;;;;6.80;5.30;;;;;;;17.82;54.78;95934.31;5015838;28;20619;-85
2021/06/03 00:57:20;;;;;;;6.18;5.55;;;;;;;17.71;55.57;95948.81;5015818;28;20199;-86
2021/06/03 00:59:46;;;;;;;6.68;5.88;;;;;;;17.61;55.52;95953.69;5015144;28;20720;-86
2021/06/03 01:02:14;;;;;;;6.45;5.75;;;;;;;17.71;54.88;95945.41;5015122;28;20199;-86
2021/06/03 01:04:40;;;;;;;6.00;5.50;;;;;;;17.72;54.69;95940.00;5014880;28;20188;-82
2021/06/03 01:07:06;;;;;;;5.78;5.18;;;;;;;17.59;55.15;95945.28;5015348;28;20744;-81
2021/06/03 01:09:38;;;;;;;5.63;5.13;;;;;;;17.66;55.15;95940.84;5020582;28;20264;-83
2021/06/03 01:12:09;;;;;;;5.93;5.32;;;;;;;17.56;55.84;95943.88;5034882;28;20206;-85
2021/06/03 01:14:37;;;;;;;5.35;4.72;;;;;;;17.57;54.65;95950.69;5027671;28;20226;-85
2021/06/03 01:17:05;;;;;;;5.22;4.72;;;;;;;17.65;54.67;95952.28;5016370;28;20242;-86
2021/06/03 01:19:35;;;;;;;5.13;4.68;;;;;;;17.65;54.36;95954.88;5014923;28;20194;-86
2021/06/03 01:22:05;;;;;;;5.03;4.53;;;;;;;17.54;54.81;95964.13;5015003;28;20207;-86
2021/06/03 01:24:35;;;;;;;6.25;5.20;;;;;;;17.42;54.95;95955.41;5015339;28;20203;-86
2021/06/03 01:27:05;;;;;;;5.60;4.38;;;;;;;17.46;54.06;95959.19;5015779;28;20737;-85
2021/06/03 01:29:41;;;;;;;4.57;4.18;;;;;;;17.58;53.02;95954.09;5015530;28;20198;-84
2021/06/03 01:32:08;;;;;;;4.60;4.20;;;;;;;17.56;54.04;95972.53;5016051;28;20206;-84
2021/06/03 01:34:36;;;;;;;5.90;3.85;;;;;;;17.49;53.82;95965.78;5015407;28;20542;-83
2021/06/03 01:37:03;;;;;;;4.30;3.90;;;;;;;17.47;53.66;95962.59;5016297;28;20276;-86
2021/06/03 01:39:30;;;;;;;4.20;3.80;;;;;;;17.48;53.51;95964.97;5015601;28;20198;-85
2021/06/03 01:41:59;;;;;;;4.88;4.47;;;;;;;17.50;53.01;95970.78;5016144;28;20205;-86
2021/06/03 01:44:26;;;;;;;4.18;3.78;;;;;;;17.51;52.96;95967.13;5017057;28;20229;-84
2021/06/03 01:46:53;;;;;;;4.18;3.75;;;;;;;17.52;52.74;95967.94;5015729;28;20229;-85
2021/06/03 01:49:19;;;;;;;5.65;4.07;;;;;;;17.52;52.98;95970.53;5014815;28;20210;-86
2021/06/03 01:51:45;;;;;;;4.10;3.70;;;;;;;17.53;53.44;95967.72;5014894;28;20256;-83
2021/06/03 01:54:13;;;;;;;4.00;3.70;;;;;;;17.49;53.31;95969.19;5014664;28;20191;-84
2021/06/03 01:56:39;;;;;;;4.18;3.78;;;;;;;17.38;53.63;95967.22;5015588;28;20254;-83
2021/06/03 01:59:06;;;;;;;4.03;3.70;;;;;;;17.32;53.64;95960.25;5014811;28;20218;-86
2021/06/03 02:01:32;;;;;;;4.00;3.60;;;;;;;17.30;53.25;95961.50;5015583;28;20202;-84
2021/06/03 02:03:59;;;;;;;4.07;3.78;;;;;;;17.27;53.94;95962.69;5016208;28;20252;-84
2021/06/03 02:06:25;;;;;;;4.38;3.80;;;;;;;17.32;53.68;95972.50;5015582;28;20250;-85
2021/06/03 02:08:51;;;;;;;4.05;3.65;;;;;;;17.36;53.58;95977.06;5014765;28;20199;-86
2021/06/03 02:11:19;;;;;;;4.45;3.97;;;;;;;17.36;53.82;95984.06;5015148;28;20252;-84
2021/06/03 02:13:49;;;;;;;4.50;4.10;;;;;;;17.33;53.98;95974.84;5014838;28;20827;-84
2021/06/03 02:16:24;;;;;;;4.18;3.70;;;;;;;17.27;54.22;95975.72;5014577;28;20585;-84
2021/06/03 02:19:08;;;;;;;3.97;3.58;;;;;;;17.25;54.02;95981.13;5015491;28;20221;-83
2021/06/03 02:21:36;;;;;;;3.95;3.65;;;;;;;17.21;53.58;95987.75;5015028;28;20851;-86
2021/06/03 02:24:05;;;;;;;4.60;4.03;;;;;;;17.27;53.41;95988.72;5016429;28;20203;-83
2021/06/03 02:26:34;;;;;;;4.07;3.72;;;;;;;17.19;53.83;95987.16;5016281;28;20221;-84
2021/06/03 02:29:01;;;;;;;4.25;3.80;;;;;;;17.22;53.24;95988.53;5016353;28;20226;-84
2021/06/03 02:31:30;;;;;;;4.00;3.60;;;;;;;17.14;53.44;95981.75;5015655;28;20194;-84
2021/06/03 02:33:56;;;;;;;3.70;3.40;;;;;;;17.12;53.31;95986.41;5015272;28;20433;-86
2021/06/03 02:36:23;;;;;;;5.20;3.50;;;;;;;17.10;53.09;95982.41;5015378;28;20261;-83
2021/06/03 02:38:49;;;;;;;4.38;3.92;;;;;;;17.14;52.84;95980.97;5016615;28;20207;-84
2021/06/03 02:41:15;;;;;;;3.97;3.55;;;;;;;17.23;52.66;95985.75;5015778;28;20214;-86
2021/06/03 02:43:44;;;;;;;3.88;3.50;;;;;;;17.27;52.12;95986.13;5016587;28;20199;-84
2021/06/03 02:46:10;;;;;;;4.00;3.63;;;;;;;17.26;52.51;95987.13;5015602;28;20219;-86
2021/06/03 02:48:38;;;;;;;6.70;3.63;;;;;;;17.24;52.66;95991.75;5015752;28;20198;-86
2021/06/03 02:51:04;;;;;;;4.10;3.70;;;;;;;17.18;53.46;96001.16;5013722;28;20199;-81
2021/06/03 02:53:31;;;;;;;4.10;3.70;;;;;;;17.12;53.57;95996.00;5015632;28;20356;-86
2021/06/03 02:55:58;;;;;;;5.05;3.60;;;;;;;17.05;53.68;95997.84;5014970;28;20230;-85
2021/06/03 02:58:24;;;;;;;4.88;3.67;;;;;;;17.05;53.86;96000.44;5015304;28;20210;-85
2021/06/03 03:00:50;;;;;;;4.25;3.53;;;;;;;17.00;54.05;95995.84;5014917;28;20207;-82
2021/06/03 03:03:17;;;;;;;3.90;3.50;;;;;;;17.03;53.77;95997.22;5015082;28;20211;-86
2021/06/03 03:05:45;;;;;;;3.65;3.35;;;;;;;17.09;54.35;95996.41;5015622;28;20219;-86
2021/06/03 03:08:12;;;;;;;7.55;3.58;;;;;;;17.10;53.82;96004.03;5015457;28;20198;-86
2021/06/03 03:10:41;;;;;;;4.60;3.70;;;;;;;17.07;53.17;96004.44;5015294;28;20205;-86
2021/06/03 03:13:08;;;;;;;4.20;3.80;;;;;;;17.06;53.61;96002.03;5013849;28;20595;-82
2021/06/03 03:15:35;;;;;;;4.25;3.70;;;;;;;17.07;53.09;96008.84;5015037;28;20215;-85
2021/06/03 03:18:01;;;;;;;3.30;3.10;;;;;;;17.06;53.59;96009.84;5015571;28;20760;-84
2021/06/03 03:20:28;;;;;;;3.53;3.22;;;;;;;17.10;53.79;96011.03;5014992;28;20199;-84
2021/06/03 03:22:58;;;;;;;3.55;3.25;;;;;;;17.18;53.30;96011.56;5015223;28;20206;-85
2021/06/03 03:25:26;;;;;;;3.80;3.40;;;;;;;17.19;53.58;96012.38;5015662;28;20710;-83
2021/06/03 03:27:53;;;;;;;4.47;4.03;;;;;;;17.18;53.94;96018.59;5015384;28;20606;-86
2021/06/03 03:30:21;;;;;;;4.32;3.17;;;;;;;17.21;53.67;96020.78;5015153;28;20198;-86
2021/06/03 03:32:47;;;;;;;3.58;3.28;;;;;;;17.27;53.40;96023.34;5014367;28;20230;-82
2021/06/03 03:35:14;;;;;;;5.47;3.38;;;;;;;17.33;53.49;96024.31;4998412;28;20226;-85
2021/06/03 03:37:42;;;;;;;4.28;3.58;;;;;;;17.31;53.58;96021.16;5017199;28;20203;-84
2021/06/03 03:40:12;;;;;;;4.28;3.83;;;;;;;17.33;53.54;96026.13;5018276;28;20210;-85
2021/06/03 03:42:38;;;;;;;4.15;3.45;;;;;;;17.30;53.65;96014.34;5017383;28;20206;-86
2021/06/03 03:45:07;;;;;;;4.82;3.95;;;;;;;17.21;54.03;96018.97;5018160;28;20213;-86
2021/06/03 03:47:33;;;;;;;4.20;3.80;;;;;;;17.14;53.94;96020.00;5017683;28;20710;-84
2021/06/03 03:49:59;;;;;;;4.55;3.50;;;;;;;17.14;53.83;96028.59;5018267;28;20233;-85
2021/06/03 03:52:25;;;;;;;4.65;3.70;;;;;;;17.06;54.94;96028.84;5017027;28;20293;-83
2021/06/03 03:54:50;;;;;;;5.13;3.70;;;;;;;17.11;54.96;96025.63;5017513;28;20235;-84
2021/06/03 03:57:19;;;;;;;5.55;3.45;;;;;;;17.18;54.35;96024.59;5016670;28;20230;-85
2021/06/03 03:59:45;;;;;;;3.97;3.67;;;;;;;17.17;54.99;96037.81;5017663;28;20293;-86
2021/06/03 04:02:11;;;;;;;7.57;3.67;;;;;;;17.28;55.35;96034.56;5018015;28;20203;-86
2021/06/03 04:04:37;;;;;;;4.68;3.90;;;;;;;17.28;55.07;96034.56;5017520;28;20210;-86
2021/06/03 04:07:09;;;;;;;4.30;3.90;;;;;;;17.21;55.89;96033.78;5018533;28;20218;-86
2021/06/03 04:09:35;;;;;;;3.97;3.58;;;;;;;17.19;55.67;96031.38;5008256;28;20199;-86
2021/06/03 04:12:01;;;;;;;3.92;3.55;;;;;;;17.22;55.36;96033.59;5014815;28;20237;-86
2021/06/03 04:14:29;;;;;;;4.07;3.70;;;;;;;17.26;55.38;96039.97;5009251;28;20225;-86
2021/06/03 04:16:56;;;;;;;3.97;3.47;;;;;;;17.38;54.55;96041.91;5022407;28;20231;-86
2021/06/03 04:19:23;;;;;;;3.88;3.53;;;;;;;17.44;54.45;96041.91;5017532;28;20571;-84
2021/06/03 04:21:50;;;;;;;4.07;3.60;;;;;;;17.51;54.03;96042.66;5015207;28;20195;-84
2021/06/03 04:24:16;;;;;;;4.43;3.92;;;;;;;17.55;54.10;96043.03;5016719;28;20693;-82
2021/06/03 04:26:42;;;;;;;4.43;3.83;;;;;;;17.59;53.97;96039.00;5017439;28;20230;-86
2021/06/03 04:29:08;;;;;;;3.90;3.60;;;;;;;17.58;54.14;96043.41;5017210;28;20882;-84
2021/06/03 04:31:35;;;;;;;4.20;3.47;;;;;;;17.63;53.96;96045.41;5017224;28;20203;-84
2021/06/03 04:34:02;;;;;;;3.92;3.63;;;;;;;17.67;54.19;96048.44;5016384;28;20230;-85
2021/06/03 04:36:27;;;;;;;4.20;3.58;;;;;;;17.76;53.97;96052.38;5016283;28;20218;-82
2021/06/03 04:38:53;;;;;;;3.92;3.60;;;;;;;17.78;54.23;96055.56;5016476;28;20202;-86
2021/06/03 04:41:20;;;;;;;4.05;3.25;;;;;;;17.81;54.27;96055.94;5017267;28;20230;-86
2021/06/03 04:43:46;;;;;;;3.63;3.33;;;;;;;17.78;54.45;96056.38;5017528;28;20206;-86
2021/06/03 04:46:12;;;;;;;4.13;3.40;;;;;;;17.82;54.61;96054.94;5017321;28;20222;-87
2021/06/03 04:48:40;;;;;;;6.30;4.00;;;;;;;18.01;55.12;96061.03;5018176;28;20203;-88
2021/06/03 04:51:06;;;;;;;5.53;4.10;;;;;;;18.34;55.43;96052.16;5019335;28;20199;-88
2021/06/03 04:53:32;;;;;;;5.50;4.25;;;;;;;18.70;54.14;96061.91;5016332;28;20203;-88
2021/06/03 04:55:58;;;;;;;8.40;3.95;;;;;;;18.96;53.73;96056.44;5014676;28;20749;-86
2021/06/03 04:58:24;;;;;;;8.35;4.72;;;;;;;19.20;52.71;96062.59;5013752;28;20206;-87
2021/06/03 05:00:50;;;;;;;8.38;4.40;;;;;;;19.40;52.18;96060.53;5015573;28;20199;-88
2021/06/03 05:03:16;;;;;;;12.40;4.65;;;;;;;19.58;51.69;96057.13;5014302;28;20253;-89
2021/06/03 05:05:44;;;;;;;10.32;4.28;;;;;;;19.70;51.72;96065.81;5014823;28;20214;-87
2021/06/03 05:08:10;;;;;;;8.77;3.60;;;;;;;19.77;51.01;96060.50;5014735;28;20199;-87
2021/06/03 05:10:36;;;;;;;9.27;4.20;;;;;;;19.84;51.10;96064.59;5017802;28;20761;-89
2021/06/03 05:13:03;;;;;;;3.70;3.40;;;;;;;19.85;51.22;96065.41;5016547;28;20203;-86
2021/06/03 05:15:30;;;;;;;5.57;4.03;;;;;;;19.69;51.30;96063.41;5016339;28;20226;-85
2021/06/03 05:17:56;;;;;;;3.83;3.50;;;;;;;19.55;51.77;96075.84;5015698;28;20202;-87
2021/06/03 05:20:25;;;;;;;5.97;3.50;;;;;;;19.42;52.19;96079.41;5015788;28;20199;-86
2021/06/03 05:22:55;;;;;;;3.40;3.10;;;;;;;19.32;52.78;96079.13;5004365;28;20269;-86
2021/06/03 05:25:24;;;;;;;3.30;3.10;;;;;;;19.27;53.25;96086.78;5014967;28;20215;-86
2021/06/03 05:27:50;;;;;;;3.88;3.50;;;;;;;19.19;53.50;96085.28;5014684;28;20195;-86
2021/06/03 05:30:20;;;;;;;5.20;3.40;;;;;;;19.21;53.22;96085.88;5015206;28;20194;-86
2021/06/03 05:32:48;;;;;;;3.45;3.05;;;;;;;19.29;53.48;96077.72;5015362;28;20226;-87
2021/06/03 05:35:16;;;;;;;3.70;3.40;;;;;;;19.35;54.17;96080.50;5014363;28;20229;-87
2021/06/03 05:37:43;;;;;;;5.03;3.35;;;;;;;19.45;53.45;96078.94;5015657;28;20202;-87
2021/06/03 05:40:15;;;;;;;4.22;3.80;;;;;;;19.52;53.83;96078.91;5014622;28;20253;-87
2021/06/03 05:42:41;;;;;;;3.15;2.95;;;;;;;19.55;54.38;96081.88;5015404;28;20198;-87
2021/06/03 05:45:09;;;;;;;3.38;3.17;;;;;;;19.64;54.41;96080.53;5015932;28;20207;-87
2021/06/03 05:47:35;;;;;;;3.30;3.00;;;;;;;19.71;54.41;96084.91;5016574;28;20258;-87
2021/06/03 05:50:02;;;;;;;2.90;2.40;;;;;;;19.70;54.74;96089.31;5016300;28;20650;-87
2021/06/03 05:52:28;;;;;;;3.00;2.80;;;;;;;19.79;54.84;96097.66;5017024;28;20210;-86
2021/06/03 05:54:54;;;;;;;3.03;2.80;;;;;;;19.93;54.20;96102.47;5016632;28;20230;-87
2021/06/03 05:57:21;;;;;;;2.78;2.58;;;;;;;20.01;54.66;96101.38;5017158;28;20218;-87
2021/06/03 05:59:47;;;;;;;2.90;2.70;;;;;;;20.04;54.37;96098.31;5016299;28;20705;-87
2021/06/03 06:02:19;;;;;;;2.92;2.72;;;;;;;20.06;55.21;96096.25;5015896;28;20222;-87
2021/06/03 06:07:32;;;;;;;2.90;2.70;;;;;;;20.26;54.47;96106.44;5005157;28;20721;-87
2021/06/03 06:09:58;;;;;;;3.17;2.80;;;;;;;20.26;55.00;96106.44;5016818;28;20207;-87
2021/06/03 06:12:25;;;;;;;3.20;3.00;;;;;;;20.35;54.71;96105.91;5016663;28;20206;-87
2021/06/03 06:14:53;;;;;;;2.95;2.65;;;;;;;20.33;54.39;96115.78;5017346;28;20225;-85
2021/06/03 06:17:19;;;;;;;3.95;2.90;;;;;;;20.28;56.12;96114.84;5016606;28;20209;-87
2021/06/03 06:19:45;;;;;;;4.57;2.92;;;;;;;20.35;55.00;96112.94;5017167;28;20199;-87
2021/06/03 06:22:13;;;;;;;3.25;2.80;;;;;;;20.49;54.58;96111.75;5016648;28;20199;-87
2021/06/03 06:24:38;;;;;;;2.90;2.70;;;;;;;20.62;54.16;96123.81;5016582;28;20582;-87
2021/06/03 06:27:08;;;;;;;3.05;2.83;;;;;;;20.78;54.21;96120.56;5016589;28;20286;-87
2021/06/03 06:29:35;;;;;;;2.80;2.60;;;;;;;20.86;53.93;96125.44;5016567;28;20210;-87
2021/06/03 06:32:01;;;;;;;2.88;2.67;;;;;;;20.90;53.97;96121.34;5015234;28;20229;-87
2021/06/03 06:34:27;;;;;;;4.35;2.83;;;;;;;20.96;53.99;96112.59;5015519;28;20234;-87
2021/06/03 06:36:53;;;;;;;2.90;2.70;;;;;;;20.98;54.21;96125.41;5016110;28;20808;-86
2021/06/03 06:39:19;;;;;;;3.08;2.70;;;;;;;20.96;54.50;96132.72;5016182;28;20207;-86
2021/06/03 06:41:48;;;;;;;3.40;3.10;;;;;;;20.93;54.81;96131.34;5015927;28;20274;-87
2021/06/03 06:44:17;;;;;;;3.53;3.00;;;;;;;20.91;54.52;96136.03;5016757;28;20616;-87
2021/06/03 06:46:45;;;;;;;2.92;2.72;;;;;;;20.93;55.23;96141.84;5015325;28;20246;-87
2021/06/03 06:49:11;;;;;;;3.28;2.65;;;;;;;20.96;54.88;96132.72;5016784;28;20198;-87
2021/06/03 06:51:37;;;;;;;3.28;2.75;;;;;;;21.00;54.64;96136.47;5015218;28;20203;-87
2021/06/03 06:54:04;;;;;;;2.85;2.47;;;;;;;21.09;54.56;96144.78;5015671;28;20202;-86
2021/06/03 06:56:30;;;;;;;2.90;2.70;;;;;;;21.18;54.51;96140.78;5016344;28;20308;-86
2021/06/03 06:58:59;;;;;;;2.97;2.78;;;;;;;21.21;53.91;96143.78;5015557;28;20667;-87
2021/06/03 07:01:25;;;;;;;4.55;2.63;;;;;;;21.26;53.88;96148.34;5015890;28;20238;-87
2021/06/03 07:03:52;;;;;;;3.78;2.80;;;;;;;21.32;53.71;96145.59;5016567;28;20211;-87
2021/06/03 07:06:22;;;;;;;2.70;2.50;;;;;;;21.44;53.50;96145.56;5016187;28;20637;-87
2021/06/03 07:08:48;;;;;;;3.25;3.03;;;;;;;21.55;52.82;96134.25;5016165;28;20206;-87
2021/06/03 07:11:14;;;;;;;2.85;2.65;;;;;;;21.63;52.90;96146.22;5016250;28;20199;-86
2021/06/03 07:13:40;;;;;;;3.00;2.72;;;;;;;21.77;52.52;96149.34;5019751;28;20202;-87
2021/06/03 07:16:06;;;;;;;2.97;2.78;;;;;;;21.80;51.88;96146.28;5019809;28;20227;-87
2021/06/03 07:18:32;;;;;;;3.10;2.72;;;;;;;21.78;51.91;96146.50;5020630;28;20658;-86
2021/06/03 07:20:59;;;;;;;3.05;2.85;;;;;;;21.77;51.71;96144.91;5019487;28;20238;-87
2021/06/03 07:23:25;;;;;;;5.60;3.38;;;;;;;21.85;51.81;96146.38;5018811;28;20224;-87
2021/06/03 07:25:55;;;;;;;3.45;3.17;;;;;;;21.83;51.28;96149.22;5020059;28;20801;-86
2021/06/03 07:28:22;;;;;;;4.03;2.80;;;;;;;21.89;51.43;96144.91;5019232;28;20721;-87
2021/06/03 07:30:48;;;;;;;2.72;2.55;;;;;;;21.94;50.59;96142.34;5019369;28;20209;-87
2021/06/03 07:33:14;;;;;;;3.20;3.00;;;;;;;22.03;51.01;96143.59;5019231;28;20227;-87
2021/06/03 07:35:40;;;;;;;3.70;2.70;;;;;;;22.17;51.39;96142.28;5019636;28;20273;-86
2021/06/03 07:38:11;;;;;;;2.97;2.78;;;;;;;22.26;50.82;96146.13;5019508;28;20207;-86
2021/06/03 07:40:39;;;;;;;3.13;2.70;;;;;;;22.33;50.84;96149.38;5019357;28;20221;-86
2021/06/03 07:43:07;;;;;;;2.95;2.67;;;;;;;22.40;50.68;96157.91;4999519;28;20213;-87
2021/06/03 07:45:34;;;;;;;3.00;2.60;;;;;;;22.43;51.11;96148.78;4999382;28;20242;-87
2021/06/03 07:48:00;;;;;;;3.17;2.97;;;;;;;22.50;50.42;96151.25;4999782;28;20207;-87
2021/06/03 07:50:28;;;;;;;2.75;2.40;;;;;;;22.57;50.28;96152.69;4999557;28;20735;-87
2021/06/03 07:52:56;;;;;;;2.80;2.60;;;;;;;22.72;49.77;96146.88;4999846;28;20579;-87
2021/06/03 07:55:24;;;;;;;3.42;2.80;;;;;;;22.76;49.26;96153.25;4999850;28;20365;-87
2021/06/03 07:57:52;;;;;;;3.53;2.92;;;;;;;22.80;49.59;96149.13;5000380;28;20235;-87
2021/06/03 08:00:22;;;;;;;3.50;3.20;;;;;;;22.86;49.74;96145.56;5019174;28;20196;-87
2021/06/03 08:02:48;;;;;;;4.45;3.08;;;;;;;22.90;49.04;96154.53;5019635;28;20206;-86
2021/06/03 08:05:16;;;;;;;2.95;2.75;;;;;;;23.06;49.87;96137.19;5021893;28;20187;-86
2021/06/03 08:07:43;;;;;;;3.42;2.60;;;;;;;23.19;49.80;96146.56;5017666;28;20238;-83
2021/06/03 08:10:12;;;;;;;2.75;2.50;;;;;;;23.33;49.71;96140.69;5019224;28;20214;-85
2021/06/03 08:12:40;;;;;;;3.00;2.70;;;;;;;23.49;48.75;96140.88;5019263;28;20257;-83
2021/06/03 08:15:09;;;;;;;2.78;2.58;;;;;;;23.58;48.60;96137.63;5018212;28;20229;-85
2021/06/03 08:17:35;;;;;;;2.80;2.60;;;;;;;23.69;47.55;96138.53;5018325;28;20228;-84
2021/06/03 08:20:02;;;;;;;3.50;2.70;;;;;;;23.86;47.17;96141.88;5017852;28;20206;-85
2021/06/03 08:22:28;;;;;;;2.85;2.63;;;;;;;24.02;47.19;96141.03;5017002;28;20257;-85
2021/06/03 08:24:54;;;;;;;4.40;3.03;;;;;;;24.09;46.73;96144.25;5018174;28;20199;-85
2021/06/03 08:27:20;;;;;;;6.10;5.20;;;;;;;24.05;46.24;96145.78;5019253;28;20219;-85
2021/06/03 08:29:47;;;;;;;5.35;4.88;;;;;;;24.08;46.02;96140.03;5018777;28;20203;-86
2021/06/03 08:32:13;;;;;;;3.63;3.00;;;;;;;24.08;46.18;96142.66;5017633;28;20230;-87
2021/06/03 08:34:39;;;;;;;3.40;3.10;;;;;;;24.20;46.20;96149.63;5018931;28;20210;-86
2021/06/03 08:37:05;;;;;;;3.10;2.90;;;;;;;24.31;45.88;96144.22;5017680;28;20226;-87
2021/06/03 08:39:31;;;;;;;3.85;2.88;;;;;;;24.39;45.71;96140.38;5018130;28;20592;-86
2021/06/03 08:41:58;;;;;;;3.85;2.75;;;;;;;24.50;46.37;96138.59;5018326;28;20214;-88
2021/06/03 08:44:28;;;;;;;2.72;2.53;;;;;;;24.51;47.17;96135.72;5018521;28;20199;-87
2021/06/03 08:46:55;;;;;;;3.50;3.20;;;;;;;24.65;45.95;96144.00;5017308;28;20298;-86
2021/06/03 08:49:21;;;;;;;3.65;2.95;;;;;;;24.62;45.06;96140.03;5017700;28;20195;-87
2021/06/03 08:51:50;;;;;;;3.00;2.80;;;;;;;24.71;45.27;96143.78;5018557;28;20222;-87
2021/06/03 08:54:16;;;;;;;4.07;2.85;;;;;;;24.86;45.17;96142.31;5017503;28;20203;-87
2021/06/03 08:56:43;;;;;;;4.25;2.70;;;;;;;24.95;45.47;96141.63;5017550;28;20222;-86
2021/06/03 08:59:09;;;;;;;3.20;2.90;;;;;;;25.08;44.85;96138.53;5017586;28;20211;-87
2021/06/03 09:01:35;;;;;;;3.95;2.92;;;;;;;25.14;44.10;96149.91;5018371;28;20225;-87
2021/06/03 09:04:02;;;;;;;3.63;3.20;;;;;;;25.20;43.46;96150.75;5018544;28;20207;-87
2021/06/03 09:06:31;;;;;;;3.60;3.08;;;;;;;25.32;43.21;96144.22;5018467;28;20222;-87
2021/06/03 09:08:59;;;;;;;12.32;11.20;;;;;;;25.37;44.01;96148.75;5017977;28;20222;-86
2021/06/03 09:11:26;;;;;;;8.15;6.03;;;;;;;25.39;43.96;96147.44;5017284;28;20203;-87
2021/06/03 09:13:55;;;;;;;4.18;3.88;;;;;;;25.51;43.32;96141.16;5017229;28;20202;-87
2021/06/03 09:16:24;;;;;;;4.10;2.95;;;;;;;25.47;42.40;96144.28;5018191;28;20278;-87
2021/06/03 09:18:51;;;;;;;3.55;3.17;;;;;;;25.57;42.26;96142.78;5018552;28;20258;-86
2021/06/03 09:21:21;;;;;;;3.75;3.10;;;;;;;25.57;42.27;96133.00;5017836;28;20266;-86
2021/06/03 09:23:55;;;;;;;3.40;3.10;;;;;;;25.60;42.82;96132.47;5018239;28;20233;-87
2021/06/03 09:26:21;;;;;;;3.58;3.00;;;;;;;25.76;42.27;96142.09;5016962;28;20223;-86
2021/06/03 09:28:48;;;;;;;3.65;3.10;;;;;;;25.65;41.39;96135.16;5018021;28;20191;-86
2021/06/03 09:31:18;;;;;;;4.85;3.00;;;;;;;25.68;42.18;96133.88;5017945;28;20199;-86
2021/06/03 09:33:49;;;;;;;3.00;2.80;;;;;;;25.86;42.30;96125.47;5017457;28;20246;-86
2021/06/03 09:36:17;;;;;;;4.93;2.97;;;;;;;25.92;43.12;96123.66;5018858;28;20229;-86
2021/06/03 09:39:00;;;;;;;3.20;2.90;;;;;;;26.13;42.01;96125.28;5018742;28;20281;-86
2021/06/03 09:41:29;;;;;;;5.13;4.15;;;;;;;26.31;41.22;96137.22;5016768;28;20203;-87
2021/06/03 09:44:07;;;;;;;4.80;4.40;;;;;;;26.46;41.37;96126.69;5005879;28;20194;-86
2021/06/03 09:46:36;;;;;;;3.58;3.28;;;;;;;26.59;41.01;96120.06;5017504;28;20219;-87
2021/06/03 09:49:03;;;;;;;3.03;2.80;;;;;;;26.68;41.19;96126.41;5018006;28;20199;-86
2021/06/03 09:51:31;;;;;;;3.22;2.90;;;;;;;26.76;40.35;96129.31;5015833;28;20203;-87
2021/06/03 09:54:01;;;;;;;5.80;4.85;;;;;;;26.75;39.71;96125.06;5017333;28;20218;-86
2021/06/03 09:56:30;;;;;;;4.00;3.40;;;;;;;26.73;39.54;96121.94;5023148;28;20276;-86
2021/06/03 09:58:57;;;;;;;3.83;3.08;;;;;;;26.74;39.80;96125.38;5017620;28;20260;-86
2021/06/03 10:01:47;;;;;;;3.13;2.83;;;;;;;26.82;40.91;96128.25;5018885;28;20467;-87
2021/06/03 10:04:16;;;;;;;3.17;2.97;;;;;;;26.91;39.54;96133.00;5021896;28;20217;-87
2021/06/03 10:06:57;;;;;;;3.38;3.17;;;;;;;27.00;38.75;96126.94;5021763;28;20215;-87
2021/06/03 10:09:55;;;;;;;3.22;2.92;;;;;;;27.08;38.52;96128.25;5022271;28;20253;-87
2021/06/03 10:12:43;;;;;;;3.90;3.13;;;;;;;27.13;37.53;96125.63;5022715;28;20757;-86
2021/06/03 10:15:29;;;;;;;3.22;2.92;;;;;;;27.21;38.41;96127.69;5022127;28;20757;-87
2021/06/03 10:17:58;;;;;;;3.17;2.97;;;;;;;27.35;38.58;96127.91;5012868;28;20234;-87
2021/06/03 10:20:31;;;;;;;3.22;3.03;;;;;;;27.39;38.20;96124.47;5019910;28;20586;-87
2021/06/03 10:22:58;;;;;;;3.40;3.10;;;;;;;27.34;38.45;96115.75;5016344;28;20276;-86
2021/06/03 10:25:26;;;;;;;3.22;3.03;;;;;;;27.48;38.37;96124.72;5016563;28;20592;-87
2021/06/03 10:27:54;;;;;;;3.05;2.75;;;;;;;27.76;38.67;96113.50;5017667;28;20209;-87
2021/06/03 10:30:22;;;;;;;3.47;3.13;;;;;;;27.85;37.75;96114.53;5019201;28;20276;-86
2021/06/03 10:32:51;;;;;;;6.50;5.70;;;;;;;27.93;37.52;96115.78;5018267;28;20237;-87
2021/06/03 10:35:21;;;;;;;5.63;4.97;;;;;;;28.06;39.02;96117.06;5017738;28;20208;-87
2021/06/03 10:37:47;;;;;;;8.23;4.10;;;;;;;28.14;38.65;96113.81;5016262;28;20258;-86
2021/06/03 10:40:17;;;;;;;4.40;3.20;;;;;;;28.16;38.49;96123.06;5025373;28;20198;-87
2021/06/03 10:42:45;;;;;;;3.80;3.50;;;;;;;27.99;37.49;96113.91;5015415;28;20195;-87
2021/06/03 10:45:13;;;;;;;6.30;3.60;;;;;;;27.94;37.14;96116.59;5017470;28;20195;-87
2021/06/03 10:47:39;;;;;;;4.30;3.33;;;;;;;28.03;38.26;96109.66;5018216;28;20221;-85
2021/06/03 10:50:08;;;;;;;3.38;3.10;;;;;;;28.23;38.00;96111.41;5020572;28;20852;-87
2021/06/03 10:52:35;;;;;;;3.38;3.08;;;;;;;28.28;36.83;96106.09;5020297;28;20198;-83
2021/06/03 10:55:02;;;;;;;3.83;3.38;;;;;;;28.38;35.94;96100.72;5020901;28;20202;-86
2021/06/03 10:57:51;;;;;;;3.88;3.58;;;;;;;28.21;36.62;96101.09;5021097;28;20227;-87
2021/06/03 11:00:24;;;;;;;3.35;2.95;;;;;;;28.18;36.51;96102.41;5014685;28;20905;-87
2021/06/03 11:02:50;;;;;;;3.70;3.40;;;;;;;28.29;35.45;96099.72;5020029;28;20199;-85
2021/06/03 11:05:25;;;;;;;3.10;2.80;;;;;;;27.88;37.07;96099.16;5021593;28;20202;-84
2021/06/03 11:07:51;;;;;;;3.22;2.92;;;;;;;27.46;37.11;96101.19;5020939;28;20208;-85
2021/06/03 11:10:27;;;;;;;4.63;3.30;;;;;;;27.15;37.28;96100.47;5021322;28;20264;-85
2021/06/03 11:13:19;;;;;;;3.45;3.15;;;;;;;26.82;38.16;96101.81;5020550;28;20214;-85
2021/06/03 11:16:09;;;;;;;5.05;3.15;;;;;;;26.65;38.68;96100.53;5012431;28;20231;-87
2021/06/03 11:18:43;;;;;;;3.67;3.28;;;;;;;26.55;39.57;96108.47;5011160;28;20203;-86
2021/06/03 11:21:09;;;;;;;4.18;3.20;;;;;;;26.82;38.86;96093.09;5015647;28;20203;-85
2021/06/03 11:23:46;;;;;;;3.80;3.40;;;;;;;27.33;39.50;96096.44;5020642;28;20205;-85
2021/06/03 11:26:52;;;;;;;6.05;2.90;;;;;;;27.69;39.00;96089.19;5018647;28;20215;-83
2021/06/03 11:29:24;;;;;;;4.35;3.10;;;;;;;28.09;37.48;96084.75;5007354;28;20226;-84
2021/06/03 11:31:52;;;;;;;3.50;3.20;;;;;;;28.38;37.71;96090.13;5017928;28;20210;-87
2021/06/03 11:34:21;;;;;;;3.47;3.17;;;;;;;28.45;36.22;96085.31;5018712;28;20229;-87
2021/06/03 11:36:58;;;;;;;3.75;3.45;;;;;;;28.29;36.19;96087.25;5018552;28;20223;-87
2021/06/03 11:39:41;;;;;;;3.28;2.97;;;;;;;28.42;34.88;96085.84;5017308;28;20194;-86
2021/06/03 11:42:23;;;;;;;4.22;3.33;;;;;;;28.42;35.06;96084.00;5015073;28;20214;-85